sensor_id;sensor_type;location;lat;lon;timestamp;pressure;altitude;pressure_sealevel;temperature;humidity
36980;BME280;22891;50.562;7.272;2022-10-16T00:01:08;99712.00;;;13.10;nan
36980;BME280;22891;50.562;7.272;2022-10-16T00:03:35;99709.00;;;13.03;nan
36980;BME280;22891;50.562;7.272;2022-10-16T00:06:02;99703.00;;;12.95;nan
36980;BME280;22891;50.562;7.272;2022-10-16T00:08:28;99704.00;;;12.83;nan
36980;BME280;22891;50.562;7.272;2022-10-16T00:11:06;99692.00;;;12.83;nan
36980;BME280;22891;50.562;7.272;2022-10-16T00:13:33;99709.00;;;12.96;nan
36980;BME280;22891;50.562;7.272;2022-10-16T00:16:00;99720.00;;;13.02;nan
36980;BME280;22891;50.562;7.272;2022-10-16T00:18:28;99721.00;;;13.19;nan
36980;BME280;22891;50.562;7.272;2022-10-16T00:20:55;99721.00;;;13.06;nan
36980;BME280;22891;50.562;7.272;2022-10-16T00:23:22;99722.00;;;12.97;nan
36980;BME280;22891;50.562;7.272;2022-10-16T00:25:55;99723.00;;;13.02;nan
36980;BME280;22891;50.562;7.272;2022-10-16T00:28:22;99727.00;;;13.03;nan
36980;BME280;22891;50.562;7.272;2022-10-16T00:30:48;99726.00;;;12.83;nan
36980;BME280;22891;50.562;7.272;2022-10-16T00:33:13;99725.00;;;12.83;nan
36980;BME280;22891;50.562;7.272;2022-10-16T00:35:39;99718.00;;;12.79;nan
36980;BME280;22891;50.562;7.272;2022-10-16T00:38:05;99725.00;;;12.89;nan
36980;BME280;22891;50.562;7.272;2022-10-16T00:40:31;99741.00;;;12.96;nan
36980;BME280;22891;50.562;7.272;2022-10-16T00:42:58;99733.00;;;12.89;nan
36980;BME280;22891;50.562;7.272;2022-10-16T00:45:24;99748.00;;;12.87;nan
36980;BME280;22891;50.562;7.272;2022-10-16T00:47:52;99738.00;;;12.81;nan
36980;BME280;22891;50.562;7.272;2022-10-16T00:50:28;99741.00;;;12.65;nan
36980;BME280;22891;50.562;7.272;2022-10-16T00:52:57;99737.00;;;12.61;nan
36980;BME280;22891;50.562;7.272;2022-10-16T00:55:24;99736.00;;;12.65;nan
36980;BME280;22891;50.562;7.272;2022-10-16T00:57:52;99736.00;;;12.70;nan
36980;BME280;22891;50.562;7.272;2022-10-16T01:00:21;99736.00;;;12.83;nan
36980;BME280;22891;50.562;7.272;2022-10-16T01:02:58;99743.00;;;12.78;nan
36980;BME280;22891;50.562;7.272;2022-10-16T01:05:35;99743.00;;;12.84;nan
36980;BME280;22891;50.562;7.272;2022-10-16T01:08:15;99745.00;;;12.90;nan
36980;BME280;22891;50.562;7.272;2022-10-16T01:13:21;99750.00;;;12.93;nan
36980;BME280;22891;50.562;7.272;2022-10-16T01:15:59;99755.00;;;12.80;nan
36980;BME280;22891;50.562;7.272;2022-10-16T01:21:08;99743.00;;;12.76;nan
36980;BME280;22891;50.562;7.272;2022-10-16T01:24:00;99755.00;;;12.75;nan
36980;BME280;22891;50.562;7.272;2022-10-16T01:29:42;99743.00;;;12.71;nan
36980;BME280;22891;50.562;7.272;2022-10-16T01:33:08;99748.00;;;12.75;nan
36980;BME280;22891;50.562;7.272;2022-10-16T01:35:47;99756.00;;;12.56;nan
36980;BME280;22891;50.562;7.272;2022-10-16T01:38:30;99755.00;;;12.54;nan
36980;BME280;22891;50.562;7.272;2022-10-16T01:41:01;99763.00;;;12.64;nan
36980;BME280;22891;50.562;7.272;2022-10-16T01:43:35;99774.00;;;12.80;nan
36980;BME280;22891;50.562;7.272;2022-10-16T01:46:03;99778.00;;;12.70;nan
36980;BME280;22891;50.562;7.272;2022-10-16T01:48:29;99758.00;;;12.70;nan
36980;BME280;22891;50.562;7.272;2022-10-16T01:51:04;99766.00;;;12.81;nan
36980;BME280;22891;50.562;7.272;2022-10-16T01:53:31;99778.00;;;12.65;nan
36980;BME280;22891;50.562;7.272;2022-10-16T01:55:59;99781.00;;;12.75;nan
36980;BME280;22891;50.562;7.272;2022-10-16T01:58:27;99776.00;;;12.77;nan
36980;BME280;22891;50.562;7.272;2022-10-16T02:00:56;99778.00;;;12.91;nan
36980;BME280;22891;50.562;7.272;2022-10-16T02:03:22;99783.00;;;12.83;nan
36980;BME280;22891;50.562;7.272;2022-10-16T02:05:55;99794.00;;;12.65;nan
36980;BME280;22891;50.562;7.272;2022-10-16T02:08:24;99794.00;;;12.72;nan
36980;BME280;22891;50.562;7.272;2022-10-16T02:10:55;99800.00;;;12.57;nan
36980;BME280;22891;50.562;7.272;2022-10-16T02:13:33;99804.00;;;12.60;nan
36980;BME280;22891;50.562;7.272;2022-10-16T02:16:00;99803.00;;;12.55;nan
36980;BME280;22891;50.562;7.272;2022-10-16T02:18:26;99792.00;;;12.63;nan
36980;BME280;22891;50.562;7.272;2022-10-16T02:21:00;99783.00;;;12.71;nan
36980;BME280;22891;50.562;7.272;2022-10-16T02:23:43;99775.00;;;12.68;nan
36980;BME280;22891;50.562;7.272;2022-10-16T02:26:15;99783.00;;;12.60;nan
36980;BME280;22891;50.562;7.272;2022-10-16T02:28:49;99778.00;;;12.77;nan
36980;BME280;22891;50.562;7.272;2022-10-16T02:31:23;99779.00;;;12.93;nan
36980;BME280;22891;50.562;7.272;2022-10-16T02:33:52;99783.00;;;12.87;nan
36980;BME280;22891;50.562;7.272;2022-10-16T02:36:20;99785.00;;;12.81;nan
36980;BME280;22891;50.562;7.272;2022-10-16T02:38:47;99785.00;;;12.81;nan
36980;BME280;22891;50.562;7.272;2022-10-16T02:41:13;99786.00;;;12.81;nan
36980;BME280;22891;50.562;7.272;2022-10-16T02:43:39;99797.00;;;13.03;nan
36980;BME280;22891;50.562;7.272;2022-10-16T02:46:05;99788.00;;;13.11;nan
36980;BME280;22891;50.562;7.272;2022-10-16T02:48:31;99779.00;;;13.09;nan
36980;BME280;22891;50.562;7.272;2022-10-16T02:50:57;99778.00;;;12.99;nan
36980;BME280;22891;50.562;7.272;2022-10-16T02:53:24;99788.00;;;13.08;nan
36980;BME280;22891;50.562;7.272;2022-10-16T02:55:50;99793.00;;;13.08;nan
36980;BME280;22891;50.562;7.272;2022-10-16T02:58:15;99804.00;;;13.26;nan
36980;BME280;22891;50.562;7.272;2022-10-16T03:00:42;99797.00;;;13.27;nan
36980;BME280;22891;50.562;7.272;2022-10-16T03:03:08;99800.00;;;13.33;nan
36980;BME280;22891;50.562;7.272;2022-10-16T03:05:35;99802.00;;;13.36;nan
36980;BME280;22891;50.562;7.272;2022-10-16T03:08:00;99791.00;;;13.41;nan
36980;BME280;22891;50.562;7.272;2022-10-16T03:10:27;99799.00;;;13.44;nan
36980;BME280;22891;50.562;7.272;2022-10-16T03:12:53;99797.00;;;13.43;nan
36980;BME280;22891;50.562;7.272;2022-10-16T03:15:19;99780.00;;;13.57;nan
36980;BME280;22891;50.562;7.272;2022-10-16T03:17:45;99784.00;;;13.51;nan
36980;BME280;22891;50.562;7.272;2022-10-16T03:20:12;99770.00;;;13.49;nan
36980;BME280;22891;50.562;7.272;2022-10-16T03:22:37;99790.00;;;13.51;nan
36980;BME280;22891;50.562;7.272;2022-10-16T03:25:04;99797.00;;;13.67;nan
36980;BME280;22891;50.562;7.272;2022-10-16T03:27:31;99816.00;;;13.58;nan
36980;BME280;22891;50.562;7.272;2022-10-16T03:29:57;99819.00;;;13.59;nan
36980;BME280;22891;50.562;7.272;2022-10-16T03:32:23;99831.00;;;13.60;nan
36980;BME280;22891;50.562;7.272;2022-10-16T03:34:50;99827.00;;;13.61;nan
36980;BME280;22891;50.562;7.272;2022-10-16T03:37:18;99818.00;;;13.69;nan
36980;BME280;22891;50.562;7.272;2022-10-16T03:39:44;99819.00;;;13.59;nan
36980;BME280;22891;50.562;7.272;2022-10-16T03:42:09;99817.00;;;13.52;nan
36980;BME280;22891;50.562;7.272;2022-10-16T03:44:35;99810.00;;;13.54;nan
36980;BME280;22891;50.562;7.272;2022-10-16T03:47:02;99809.00;;;13.63;nan
36980;BME280;22891;50.562;7.272;2022-10-16T03:49:28;99813.00;;;13.69;nan
36980;BME280;22891;50.562;7.272;2022-10-16T03:51:53;99807.00;;;13.67;nan
36980;BME280;22891;50.562;7.272;2022-10-16T03:54:19;99812.00;;;13.75;nan
36980;BME280;22891;50.562;7.272;2022-10-16T03:56:45;99812.00;;;13.73;nan
36980;BME280;22891;50.562;7.272;2022-10-16T03:59:11;99816.00;;;13.71;nan
36980;BME280;22891;50.562;7.272;2022-10-16T04:01:37;99817.00;;;13.68;nan
36980;BME280;22891;50.562;7.272;2022-10-16T04:04:03;99816.00;;;13.75;nan
36980;BME280;22891;50.562;7.272;2022-10-16T04:06:28;99819.00;;;13.62;nan
36980;BME280;22891;50.562;7.272;2022-10-16T04:08:55;99820.00;;;13.63;nan
36980;BME280;22891;50.562;7.272;2022-10-16T04:11:22;99827.00;;;13.61;nan
36980;BME280;22891;50.562;7.272;2022-10-16T04:13:48;99826.00;;;13.75;nan
36980;BME280;22891;50.562;7.272;2022-10-16T04:16:14;99839.00;;;13.78;nan
36980;BME280;22891;50.562;7.272;2022-10-16T04:18:39;99844.00;;;13.81;nan
36980;BME280;22891;50.562;7.272;2022-10-16T04:21:07;99836.00;;;13.76;nan
36980;BME280;22891;50.562;7.272;2022-10-16T04:23:32;99838.00;;;13.74;nan
36980;BME280;22891;50.562;7.272;2022-10-16T04:25:58;99813.00;;;13.81;nan
36980;BME280;22891;50.562;7.272;2022-10-16T04:28:26;99821.00;;;13.74;nan
36980;BME280;22891;50.562;7.272;2022-10-16T04:30:52;99824.00;;;13.69;nan
36980;BME280;22891;50.562;7.272;2022-10-16T04:33:18;99828.00;;;13.75;nan
36980;BME280;22891;50.562;7.272;2022-10-16T04:35:44;99833.00;;;13.82;nan
36980;BME280;22891;50.562;7.272;2022-10-16T04:38:09;99833.00;;;13.88;nan
36980;BME280;22891;50.562;7.272;2022-10-16T04:40:35;99845.00;;;13.96;nan
36980;BME280;22891;50.562;7.272;2022-10-16T04:43:05;99863.00;;;13.90;nan
36980;BME280;22891;50.562;7.272;2022-10-16T04:45:31;99855.00;;;13.86;nan
36980;BME280;22891;50.562;7.272;2022-10-16T04:47:58;99851.00;;;13.82;nan
36980;BME280;22891;50.562;7.272;2022-10-16T04:50:23;99854.00;;;13.81;nan
36980;BME280;22891;50.562;7.272;2022-10-16T04:52:50;99856.00;;;13.74;nan
36980;BME280;22891;50.562;7.272;2022-10-16T04:55:16;99845.00;;;13.79;nan
36980;BME280;22891;50.562;7.272;2022-10-16T04:57:41;99855.00;;;13.78;nan
36980;BME280;22891;50.562;7.272;2022-10-16T05:00:08;99841.00;;;13.82;nan
36980;BME280;22891;50.562;7.272;2022-10-16T05:02:34;99853.00;;;13.77;nan
36980;BME280;22891;50.562;7.272;2022-10-16T05:05:00;99865.00;;;13.79;nan
36980;BME280;22891;50.562;7.272;2022-10-16T05:07:25;99869.00;;;13.89;nan
36980;BME280;22891;50.562;7.272;2022-10-16T05:09:51;99866.00;;;13.92;nan
36980;BME280;22891;50.562;7.272;2022-10-16T05:12:17;99868.00;;;13.90;nan
36980;BME280;22891;50.562;7.272;2022-10-16T05:14:43;99865.00;;;13.94;nan
36980;BME280;22891;50.562;7.272;2022-10-16T05:17:08;99854.00;;;13.87;nan
36980;BME280;22891;50.562;7.272;2022-10-16T05:19:34;99848.00;;;13.86;nan
36980;BME280;22891;50.562;7.272;2022-10-16T05:22:00;99856.00;;;13.89;nan
36980;BME280;22891;50.562;7.272;2022-10-16T05:24:26;99864.00;;;13.84;nan
36980;BME280;22891;50.562;7.272;2022-10-16T05:26:52;99859.00;;;13.94;nan
36980;BME280;22891;50.562;7.272;2022-10-16T05:29:18;99860.00;;;13.93;nan
36980;BME280;22891;50.562;7.272;2022-10-16T05:31:44;99875.00;;;13.90;nan
36980;BME280;22891;50.562;7.272;2022-10-16T05:34:10;99873.00;;;13.99;nan
36980;BME280;22891;50.562;7.272;2022-10-16T05:36:36;99883.00;;;14.08;nan
36980;BME280;22891;50.562;7.272;2022-10-16T05:39:02;99867.00;;;14.08;nan
36980;BME280;22891;50.562;7.272;2022-10-16T05:41:28;99864.00;;;14.08;nan
36980;BME280;22891;50.562;7.272;2022-10-16T05:43:54;99886.00;;;14.10;nan
36980;BME280;22891;50.562;7.272;2022-10-16T05:46:20;99894.00;;;14.18;nan
36980;BME280;22891;50.562;7.272;2022-10-16T05:48:46;99897.00;;;14.17;nan
36980;BME280;22891;50.562;7.272;2022-10-16T05:51:13;99898.00;;;14.11;nan
36980;BME280;22891;50.562;7.272;2022-10-16T05:53:40;99891.00;;;14.08;nan
36980;BME280;22891;50.562;7.272;2022-10-16T05:56:09;99904.00;;;14.10;nan
36980;BME280;22891;50.562;7.272;2022-10-16T05:58:37;99907.00;;;14.10;nan
36980;BME280;22891;50.562;7.272;2022-10-16T06:01:11;99919.00;;;14.19;nan
36980;BME280;22891;50.562;7.272;2022-10-16T06:03:37;99917.00;;;14.16;nan
36980;BME280;22891;50.562;7.272;2022-10-16T06:06:24;99918.00;;;14.12;nan
36980;BME280;22891;50.562;7.272;2022-10-16T06:08:52;99916.00;;;14.22;nan
36980;BME280;22891;50.562;7.272;2022-10-16T06:11:24;99925.00;;;14.16;nan
36980;BME280;22891;50.562;7.272;2022-10-16T06:13:55;99942.00;;;14.18;nan
36980;BME280;22891;50.562;7.272;2022-10-16T06:16:27;99946.00;;;14.26;nan
36980;BME280;22891;50.562;7.272;2022-10-16T06:18:54;99948.00;;;14.32;nan
36980;BME280;22891;50.562;7.272;2022-10-16T06:21:23;99966.00;;;14.24;nan
36980;BME280;22891;50.562;7.272;2022-10-16T06:23:53;99948.00;;;14.27;nan
36980;BME280;22891;50.562;7.272;2022-10-16T06:26:22;99957.00;;;14.25;nan
36980;BME280;22891;50.562;7.272;2022-10-16T06:28:49;99956.00;;;14.29;nan
36980;BME280;22891;50.562;7.272;2022-10-16T06:31:15;99963.00;;;14.28;nan
36980;BME280;22891;50.562;7.272;2022-10-16T06:33:42;99953.00;;;14.30;nan
36980;BME280;22891;50.562;7.272;2022-10-16T06:36:12;99947.00;;;14.28;nan
36980;BME280;22891;50.562;7.272;2022-10-16T06:38:39;99966.00;;;14.27;nan
36980;BME280;22891;50.562;7.272;2022-10-16T06:41:06;99972.00;;;14.30;nan
36980;BME280;22891;50.562;7.272;2022-10-16T06:43:32;99979.00;;;14.35;nan
36980;BME280;22891;50.562;7.272;2022-10-16T06:46:01;99990.00;;;14.36;nan
36980;BME280;22891;50.562;7.272;2022-10-16T06:48:28;99990.00;;;14.38;nan
36980;BME280;22891;50.562;7.272;2022-10-16T06:51:02;100001.00;;;14.39;nan
36980;BME280;22891;50.562;7.272;2022-10-16T06:53:29;99996.00;;;14.45;nan
36980;BME280;22891;50.562;7.272;2022-10-16T06:55:56;100017.00;;;14.48;nan
36980;BME280;22891;50.562;7.272;2022-10-16T06:58:23;100026.00;;;14.50;nan
36980;BME280;22891;50.562;7.272;2022-10-16T07:00:55;100031.00;;;14.45;nan
36980;BME280;22891;50.562;7.272;2022-10-16T07:03:22;100038.00;;;14.39;nan
36980;BME280;22891;50.562;7.272;2022-10-16T07:05:48;100037.00;;;14.40;nan
36980;BME280;22891;50.562;7.272;2022-10-16T07:08:13;100044.00;;;14.42;nan
36980;BME280;22891;50.562;7.272;2022-10-16T07:10:40;100045.00;;;14.52;nan
36980;BME280;22891;50.562;7.272;2022-10-16T07:13:06;100044.00;;;14.62;nan
36980;BME280;22891;50.562;7.272;2022-10-16T07:15:33;100057.00;;;14.79;nan
36980;BME280;22891;50.562;7.272;2022-10-16T07:17:59;100071.00;;;14.83;nan
36980;BME280;22891;50.562;7.272;2022-10-16T07:20:24;100082.00;;;14.83;nan
36980;BME280;22891;50.562;7.272;2022-10-16T07:22:50;100081.00;;;14.81;nan
36980;BME280;22891;50.562;7.272;2022-10-16T07:25:16;100142.00;;;14.84;nan
36980;BME280;22891;50.562;7.272;2022-10-16T07:27:42;100140.00;;;14.78;nan
36980;BME280;22891;50.562;7.272;2022-10-16T07:30:09;100152.00;;;14.76;nan
36980;BME280;22891;50.562;7.272;2022-10-16T07:32:35;100161.00;;;14.88;nan
36980;BME280;22891;50.562;7.272;2022-10-16T07:35:01;100169.00;;;14.99;nan
36980;BME280;22891;50.562;7.272;2022-10-16T07:37:27;100183.00;;;15.00;nan
36980;BME280;22891;50.562;7.272;2022-10-16T07:39:53;100200.00;;;15.07;nan
36980;BME280;22891;50.562;7.272;2022-10-16T07:42:19;100204.00;;;15.27;nan
36980;BME280;22891;50.562;7.272;2022-10-16T07:44:45;100217.00;;;15.51;nan
36980;BME280;22891;50.562;7.272;2022-10-16T07:47:11;100227.00;;;15.67;nan
36980;BME280;22891;50.562;7.272;2022-10-16T07:49:37;100251.00;;;15.88;nan
36980;BME280;22891;50.562;7.272;2022-10-16T07:52:02;100261.00;;;15.84;nan
36980;BME280;22891;50.562;7.272;2022-10-16T07:54:28;100252.00;;;15.88;nan
36980;BME280;22891;50.562;7.272;2022-10-16T07:56:54;100257.00;;;15.85;nan
36980;BME280;22891;50.562;7.272;2022-10-16T07:59:20;100270.00;;;15.96;nan
36980;BME280;22891;50.562;7.272;2022-10-16T08:01:46;100289.00;;;15.88;nan
36980;BME280;22891;50.562;7.272;2022-10-16T08:04:13;100328.00;;;15.93;nan
36980;BME280;22891;50.562;7.272;2022-10-16T08:06:40;100337.00;;;15.87;nan
36980;BME280;22891;50.562;7.272;2022-10-16T08:09:07;100344.00;;;15.90;nan
36980;BME280;22891;50.562;7.272;2022-10-16T08:11:33;100394.00;;;15.94;nan
36980;BME280;22891;50.562;7.272;2022-10-16T08:13:59;100425.00;;;16.07;nan
36980;BME280;22891;50.562;7.272;2022-10-16T08:16:25;100462.00;;;16.07;nan
36980;BME280;22891;50.562;7.272;2022-10-16T08:18:51;100481.00;;;16.06;nan
36980;BME280;22891;50.562;7.272;2022-10-16T08:21:19;100495.00;;;16.07;nan
36980;BME280;22891;50.562;7.272;2022-10-16T08:23:46;100507.00;;;16.11;nan
36980;BME280;22891;50.562;7.272;2022-10-16T08:26:13;100530.00;;;16.22;nan
36980;BME280;22891;50.562;7.272;2022-10-16T08:28:39;100570.00;;;16.53;nan
36980;BME280;22891;50.562;7.272;2022-10-16T08:31:10;100570.00;;;16.53;nan
36980;BME280;22891;50.562;7.272;2022-10-16T08:33:37;100664.00;;;16.65;nan
36980;BME280;22891;50.562;7.272;2022-10-16T08:36:04;100664.00;;;16.65;nan
36980;BME280;22891;50.562;7.272;2022-10-16T08:38:31;100693.00;;;16.76;nan
36980;BME280;22891;50.562;7.272;2022-10-16T08:41:19;100704.00;;;16.78;nan
36980;BME280;22891;50.562;7.272;2022-10-16T08:45:42;100715.00;;;16.64;nan
36980;BME280;22891;50.562;7.272;2022-10-16T08:48:47;100720.00;;;16.38;nan
36980;BME280;22891;50.562;7.272;2022-10-16T08:51:26;100734.00;;;16.53;nan
36980;BME280;22891;50.562;7.272;2022-10-16T09:36:23;100761.00;;;16.69;nan
36980;BME280;22891;50.562;7.272;2022-10-16T09:39:02;100761.00;;;16.69;nan
36980;BME280;22891;50.562;7.272;2022-10-16T09:41:29;101086.00;;;22.04;nan
36980;BME280;22891;50.562;7.272;2022-10-16T09:43:57;101117.00;;;23.32;nan
36980;BME280;22891;50.562;7.272;2022-10-16T09:46:35;101111.00;;;22.66;nan
36980;BME280;22891;50.562;7.272;2022-10-16T09:49:22;101114.00;;;23.05;nan
36980;BME280;22891;50.562;7.272;2022-10-16T09:51:49;101116.00;;;23.88;nan
36980;BME280;22891;50.562;7.272;2022-10-16T09:54:20;101119.00;;;24.49;nan
36980;BME280;22891;50.562;7.272;2022-10-16T09:56:47;101119.00;;;24.07;nan
36980;BME280;22891;50.562;7.272;2022-10-16T09:59:21;101111.00;;;23.59;nan
36980;BME280;22891;50.562;7.272;2022-10-16T10:01:54;101111.00;;;23.59;nan
36980;BME280;22891;50.562;7.272;2022-10-16T10:04:23;101110.00;;;22.54;nan
36980;BME280;22891;50.562;7.272;2022-10-16T10:06:52;101117.00;;;23.12;nan
36980;BME280;22891;50.562;7.272;2022-10-16T10:09:25;101121.00;;;22.99;nan
36980;BME280;22891;50.562;7.272;2022-10-16T10:11:57;101114.00;;;22.21;nan
36980;BME280;22891;50.562;7.272;2022-10-16T10:14:45;101115.00;;;22.93;nan
36980;BME280;22891;50.562;7.272;2022-10-16T10:38:07;101040.00;;;23.26;nan
36980;BME280;22891;50.562;7.272;2022-10-16T10:43:56;101115.00;;;23.61;nan
36980;BME280;22891;50.562;7.272;2022-10-16T10:46:35;101111.00;;;23.83;nan
36980;BME280;22891;50.562;7.272;2022-10-16T10:49:36;101111.00;;;23.83;nan
36980;BME280;22891;50.562;7.272;2022-10-16T11:16:56;101105.00;;;24.23;nan
36980;BME280;22891;50.562;7.272;2022-10-16T12:06:44;101105.00;;;21.44;nan
36980;BME280;22891;50.562;7.272;2022-10-16T12:09:23;101110.00;;;21.50;nan
36980;BME280;22891;50.562;7.272;2022-10-16T12:11:51;101101.00;;;21.64;nan
36980;BME280;22891;50.562;7.272;2022-10-16T12:17:37;101088.00;;;21.56;nan
36980;BME280;22891;50.562;7.272;2022-10-16T12:21:04;101087.00;;;21.31;nan
36980;BME280;22891;50.562;7.272;2022-10-16T12:23:46;101081.00;;;20.90;nan
36980;BME280;22891;50.562;7.272;2022-10-16T13:30:29;101103.00;;;21.68;nan
36980;BME280;22891;50.562;7.272;2022-10-16T13:38:13;101040.00;;;19.46;nan
36980;BME280;22891;50.562;7.272;2022-10-16T13:40:54;101045.00;;;19.42;nan
36980;BME280;22891;50.562;7.272;2022-10-16T13:43:36;101045.00;;;19.42;nan
36980;BME280;22891;50.562;7.272;2022-10-16T13:46:05;101031.00;;;19.37;nan
36980;BME280;22891;50.562;7.272;2022-10-16T13:49:21;101020.00;;;19.30;nan
36980;BME280;22891;50.562;7.272;2022-10-16T13:51:57;101020.00;;;19.30;nan
36980;BME280;22891;50.562;7.272;2022-10-16T13:54:24;101003.00;;;19.52;nan
36980;BME280;22891;50.562;7.272;2022-10-16T13:56:51;101005.00;;;19.60;nan
36980;BME280;22891;50.562;7.272;2022-10-16T13:59:33;101005.00;;;19.60;nan
36980;BME280;22891;50.562;7.272;2022-10-16T14:02:00;101028.00;;;19.88;nan
36980;BME280;22891;50.562;7.272;2022-10-16T14:04:32;101028.00;;;19.88;nan
36980;BME280;22891;50.562;7.272;2022-10-16T14:06:59;101055.00;;;20.32;nan
36980;BME280;22891;50.562;7.272;2022-10-16T14:09:29;101050.00;;;20.20;nan
36980;BME280;22891;50.562;7.272;2022-10-16T14:12:08;101052.00;;;20.14;nan
36980;BME280;22891;50.562;7.272;2022-10-16T14:15:17;101045.00;;;19.92;nan
36980;BME280;22891;50.562;7.272;2022-10-16T14:17:47;101063.00;;;19.82;nan
36980;BME280;22891;50.562;7.272;2022-10-16T14:20:15;101057.00;;;19.77;nan
36980;BME280;22891;50.562;7.272;2022-10-16T14:22:42;101051.00;;;19.81;nan
36980;BME280;22891;50.562;7.272;2022-10-16T14:27:01;101052.00;;;19.90;nan
36980;BME280;22891;50.562;7.272;2022-10-16T14:29:28;101060.00;;;19.80;nan
36980;BME280;22891;50.562;7.272;2022-10-16T14:32:00;101054.00;;;19.83;nan
36980;BME280;22891;50.562;7.272;2022-10-16T14:34:37;101053.00;;;19.79;nan
36980;BME280;22891;50.562;7.272;2022-10-16T14:37:24;101051.00;;;19.70;nan
36980;BME280;22891;50.562;7.272;2022-10-16T14:40:47;101057.00;;;19.75;100.00
36980;BME280;22891;50.562;7.272;2022-10-16T14:43:22;101044.00;;;19.61;100.00
36980;BME280;22891;50.562;7.272;2022-10-16T14:45:52;101044.00;;;19.54;100.00
36980;BME280;22891;50.562;7.272;2022-10-16T14:48:20;101044.00;;;19.54;100.00
36980;BME280;22891;50.562;7.272;2022-10-16T14:50:46;101030.00;;;19.49;100.00
36980;BME280;22891;50.562;7.272;2022-10-16T14:53:12;101020.00;;;19.56;100.00
36980;BME280;22891;50.562;7.272;2022-10-16T14:55:40;101014.00;;;19.37;100.00
36980;BME280;22891;50.562;7.272;2022-10-16T14:58:19;100994.00;;;19.29;100.00
36980;BME280;22891;50.562;7.272;2022-10-16T15:00:46;100981.00;;;19.45;100.00
36980;BME280;22891;50.562;7.272;2022-10-16T15:03:12;100987.00;;;19.52;100.00
36980;BME280;22891;50.562;7.272;2022-10-16T15:05:37;100993.00;;;19.44;100.00
36980;BME280;22891;50.562;7.272;2022-10-16T15:08:03;100983.00;;;19.37;100.00
36980;BME280;22891;50.562;7.272;2022-10-16T15:10:30;100972.00;;;19.43;100.00
36980;BME280;22891;50.562;7.272;2022-10-16T15:12:58;100969.00;;;19.36;100.00
36980;BME280;22891;50.562;7.272;2022-10-16T15:15:53;100965.00;;;19.16;100.00
36980;BME280;22891;50.562;7.272;2022-10-16T15:18:19;100950.00;;;19.06;100.00
36980;BME280;22891;50.562;7.272;2022-10-16T15:20:50;100948.00;;;18.96;100.00
36980;BME280;22891;50.562;7.272;2022-10-16T15:23:18;100948.00;;;18.93;100.00
36980;BME280;22891;50.562;7.272;2022-10-16T15:25:52;100938.00;;;18.87;100.00
36980;BME280;22891;50.562;7.272;2022-10-16T15:28:19;100934.00;;;18.81;100.00
36980;BME280;22891;50.562;7.272;2022-10-16T15:30:45;100938.00;;;18.92;100.00
36980;BME280;22891;50.562;7.272;2022-10-16T15:33:25;100937.00;;;18.79;100.00
36980;BME280;22891;50.562;7.272;2022-10-16T15:35:54;100934.00;;;18.81;100.00
36980;BME280;22891;50.562;7.272;2022-10-16T15:38:21;100935.00;;;18.81;100.00
36980;BME280;22891;50.562;7.272;2022-10-16T15:40:48;100928.00;;;18.71;100.00
36980;BME280;22891;50.562;7.272;2022-10-16T15:43:15;100922.00;;;18.68;100.00
36980;BME280;22891;50.562;7.272;2022-10-16T15:45:41;100908.00;;;18.59;100.00
36980;BME280;22891;50.562;7.272;2022-10-16T15:48:11;100898.00;;;18.56;100.00
36980;BME280;22891;50.562;7.272;2022-10-16T15:50:38;100896.00;;;18.52;100.00
36980;BME280;22891;50.562;7.272;2022-10-16T15:53:05;100897.00;;;18.42;100.00
36980;BME280;22891;50.562;7.272;2022-10-16T15:55:31;100898.00;;;18.43;100.00
36980;BME280;22891;50.562;7.272;2022-10-16T15:57:57;100878.00;;;18.37;100.00
36980;BME280;22891;50.562;7.272;2022-10-16T16:00:23;100881.00;;;18.36;100.00
36980;BME280;22891;50.562;7.272;2022-10-16T16:02:52;100875.00;;;18.26;100.00
36980;BME280;22891;50.562;7.272;2022-10-16T16:05:20;100883.00;;;18.34;100.00
36980;BME280;22891;50.562;7.272;2022-10-16T16:07:50;100869.00;;;18.25;100.00
36980;BME280;22891;50.562;7.272;2022-10-16T16:10:16;100870.00;;;18.27;100.00
36980;BME280;22891;50.562;7.272;2022-10-16T16:12:42;100879.00;;;18.38;100.00
36980;BME280;22891;50.562;7.272;2022-10-16T16:15:10;100875.00;;;18.26;100.00
36980;BME280;22891;50.562;7.272;2022-10-16T16:17:36;100870.00;;;18.16;100.00
36980;BME280;22891;50.562;7.272;2022-10-16T16:20:04;100862.00;;;18.11;100.00
36980;BME280;22891;50.562;7.272;2022-10-16T16:22:31;100854.00;;;18.08;100.00
36980;BME280;22891;50.562;7.272;2022-10-16T16:24:57;100848.00;;;18.09;100.00
36980;BME280;22891;50.562;7.272;2022-10-16T16:27:23;100854.00;;;18.06;100.00
36980;BME280;22891;50.562;7.272;2022-10-16T16:29:50;100849.00;;;18.07;100.00
36980;BME280;22891;50.562;7.272;2022-10-16T16:32:16;100848.00;;;18.04;100.00
36980;BME280;22891;50.562;7.272;2022-10-16T16:34:42;100851.00;;;18.13;100.00
36980;BME280;22891;50.562;7.272;2022-10-16T16:37:08;100865.00;;;18.36;100.00
36980;BME280;22891;50.562;7.272;2022-10-16T16:39:33;100874.00;;;18.27;100.00
36980;BME280;22891;50.562;7.272;2022-10-16T16:41:59;100848.00;;;18.12;100.00
36980;BME280;22891;50.562;7.272;2022-10-16T16:44:27;100828.00;;;18.07;100.00
36980;BME280;22891;50.562;7.272;2022-10-16T16:46:53;100807.00;;;17.94;100.00
36980;BME280;22891;50.562;7.272;2022-10-16T16:49:19;100807.00;;;17.94;100.00
36980;BME280;22891;50.562;7.272;2022-10-16T16:51:46;100794.00;;;17.82;100.00
36980;BME280;22891;50.562;7.272;2022-10-16T16:54:12;100791.00;;;17.78;100.00
36980;BME280;22891;50.562;7.272;2022-10-16T16:56:39;100791.00;;;17.78;100.00
36980;BME280;22891;50.562;7.272;2022-10-16T16:59:14;100788.00;;;17.74;100.00
36980;BME280;22891;50.562;7.272;2022-10-16T17:01:40;100781.00;;;17.69;100.00
36980;BME280;22891;50.562;7.272;2022-10-16T17:04:07;100777.00;;;17.76;100.00
36980;BME280;22891;50.562;7.272;2022-10-16T17:06:33;100773.00;;;17.67;100.00